sensor_id;sensor_type;location;lat;lon;timestamp;P1;durP1;ratioP1;P2;durP2;ratioP2
21110;SDS011;10713;51.912;4.494;2023-04-25T00:01:20;13.82;;;3.80;;
21110;SDS011;10713;51.912;4.494;2023-04-25T00:03:49;15.48;;;3.60;;
21110;SDS011;10713;51.912;4.494;2023-04-25T00:06:15;13.80;;;3.33;;
21110;SDS011;10713;51.912;4.494;2023-04-25T00:08:40;23.27;;;4.13;;
21110;SDS011;10713;51.912;4.494;2023-04-25T00:11:06;13.88;;;3.47;;
21110;SDS011;10713;51.912;4.494;2023-04-25T00:13:31;22.80;;;4.38;;
21110;SDS011;10713;51.912;4.494;2023-04-25T00:15:57;12.55;;;3.65;;
21110;SDS011;10713;51.912;4.494;2023-04-25T00:18:23;12.48;;;3.60;;
21110;SDS011;10713;51.912;4.494;2023-04-25T00:20:48;13.30;;;3.35;;
21110;SDS011;10713;51.912;4.494;2023-04-25T00:23:14;15.20;;;3.38;;
21110;SDS011;10713;51.912;4.494;2023-04-25T00:25:42;13.02;;;3.40;;
21110;SDS011;10713;51.912;4.494;2023-04-25T00:28:08;20.35;;;4.00;;
21110;SDS011;10713;51.912;4.494;2023-04-25T00:30:33;15.98;;;3.35;;
21110;SDS011;10713;51.912;4.494;2023-04-25T00:32:59;10.52;;;3.20;;
21110;SDS011;10713;51.912;4.494;2023-04-25T00:35:24;17.58;;;3.97;;
21110;SDS011;10713;51.912;4.494;2023-04-25T00:37:50;11.90;;;3.53;;
21110;SDS011;10713;51.912;4.494;2023-04-25T00:40:15;13.55;;;3.47;;
21110;SDS011;10713;51.912;4.494;2023-04-25T00:42:41;10.32;;;3.17;;
21110;SDS011;10713;51.912;4.494;2023-04-25T00:45:06;14.18;;;3.05;;
21110;SDS011;10713;51.912;4.494;2023-04-25T00:47:34;13.48;;;3.35;;
21110;SDS011;10713;51.912;4.494;2023-04-25T00:50:01;12.95;;;3.15;;
21110;SDS011;10713;51.912;4.494;2023-04-25T00:52:26;10.60;;;3.45;;
21110;SDS011;10713;51.912;4.494;2023-04-25T00:54:52;10.55;;;2.80;;
21110;SDS011;10713;51.912;4.494;2023-04-25T00:57:17;10.52;;;3.15;;
21110;SDS011;10713;51.912;4.494;2023-04-25T00:59:44;13.65;;;3.22;;
21110;SDS011;10713;51.912;4.494;2023-04-25T01:02:11;10.13;;;3.42;;
21110;SDS011;10713;51.912;4.494;2023-04-25T01:04:37;11.57;;;3.10;;
21110;SDS011;10713;51.912;4.494;2023-04-25T01:07:02;10.75;;;2.80;;
21110;SDS011;10713;51.912;4.494;2023-04-25T01:09:28;11.82;;;3.17;;
21110;SDS011;10713;51.912;4.494;2023-04-25T01:11:55;9.48;;;2.40;;
21110;SDS011;10713;51.912;4.494;2023-04-25T01:14:22;12.80;;;2.80;;
21110;SDS011;10713;51.912;4.494;2023-04-25T01:16:47;12.85;;;2.70;;
21110;SDS011;10713;51.912;4.494;2023-04-25T01:19:13;11.18;;;2.95;;
21110;SDS011;10713;51.912;4.494;2023-04-25T01:21:41;16.05;;;3.33;;
21110;SDS011;10713;51.912;4.494;2023-04-25T01:24:07;9.48;;;2.67;;
21110;SDS011;10713;51.912;4.494;2023-04-25T01:26:33;10.88;;;2.70;;
21110;SDS011;10713;51.912;4.494;2023-04-25T01:28:59;13.30;;;3.72;;
21110;SDS011;10713;51.912;4.494;2023-04-25T01:31:26;7.68;;;2.63;;
21110;SDS011;10713;51.912;4.494;2023-04-25T01:33:52;10.07;;;3.20;;
21110;SDS011;10713;51.912;4.494;2023-04-25T01:36:17;15.43;;;2.90;;
21110;SDS011;10713;51.912;4.494;2023-04-25T01:38:43;9.43;;;2.78;;
21110;SDS011;10713;51.912;4.494;2023-04-25T01:41:09;13.45;;;3.50;;
21110;SDS011;10713;51.912;4.494;2023-04-25T01:43:34;11.80;;;2.92;;
21110;SDS011;10713;51.912;4.494;2023-04-25T01:46:00;7.45;;;2.60;;
21110;SDS011;10713;51.912;4.494;2023-04-25T01:48:26;17.30;;;4.43;;
21110;SDS011;10713;51.912;4.494;2023-04-25T01:50:51;11.02;;;3.10;;
21110;SDS011;10713;51.912;4.494;2023-04-25T01:53:17;16.40;;;3.38;;
21110;SDS011;10713;51.912;4.494;2023-04-25T01:55:42;12.80;;;2.67;;
21110;SDS011;10713;51.912;4.494;2023-04-25T01:58:08;11.38;;;2.47;;
21110;SDS011;10713;51.912;4.494;2023-04-25T02:00:35;9.57;;;2.83;;
21110;SDS011;10713;51.912;4.494;2023-04-25T02:03:03;11.45;;;3.05;;
21110;SDS011;10713;51.912;4.494;2023-04-25T02:05:28;11.85;;;2.80;;
21110;SDS011;10713;51.912;4.494;2023-04-25T02:07:58;11.77;;;2.50;;
21110;SDS011;10713;51.912;4.494;2023-04-25T02:10:24;9.52;;;2.90;;
21110;SDS011;10713;51.912;4.494;2023-04-25T02:12:49;10.45;;;2.53;;
21110;SDS011;10713;51.912;4.494;2023-04-25T02:15:14;9.60;;;2.78;;
21110;SDS011;10713;51.912;4.494;2023-04-25T02:17:40;10.13;;;2.88;;
21110;SDS011;10713;51.912;4.494;2023-04-25T02:20:05;7.50;;;2.58;;
21110;SDS011;10713;51.912;4.494;2023-04-25T02:22:31;15.75;;;3.30;;
21110;SDS011;10713;51.912;4.494;2023-04-25T02:24:56;11.93;;;2.67;;
21110;SDS011;10713;51.912;4.494;2023-04-25T02:27:22;11.65;;;2.50;;
21110;SDS011;10713;51.912;4.494;2023-04-25T02:29:48;14.15;;;3.17;;
21110;SDS011;10713;51.912;4.494;2023-04-25T02:32:13;7.53;;;2.72;;
21110;SDS011;10713;51.912;4.494;2023-04-25T02:34:39;18.27;;;2.60;;
21110;SDS011;10713;51.912;4.494;2023-04-25T02:37:04;15.07;;;3.00;;
21110;SDS011;10713;51.912;4.494;2023-04-25T02:39:29;13.27;;;2.42;;
21110;SDS011;10713;51.912;4.494;2023-04-25T02:41:55;12.95;;;2.50;;
21110;SDS011;10713;51.912;4.494;2023-04-25T02:44:20;7.80;;;2.47;;
21110;SDS011;10713;51.912;4.494;2023-04-25T02:46:45;15.20;;;2.53;;
21110;SDS011;10713;51.912;4.494;2023-04-25T02:49:11;6.88;;;2.25;;
21110;SDS011;10713;51.912;4.494;2023-04-25T02:51:36;10.25;;;2.40;;
21110;SDS011;10713;51.912;4.494;2023-04-25T02:54:01;12.27;;;2.30;;
21110;SDS011;10713;51.912;4.494;2023-04-25T02:56:27;9.98;;;2.65;;
21110;SDS011;10713;51.912;4.494;2023-04-25T02:58:52;9.20;;;2.65;;
21110;SDS011;10713;51.912;4.494;2023-04-25T03:01:18;9.68;;;2.88;;
21110;SDS011;10713;51.912;4.494;2023-04-25T03:03:43;11.27;;;2.60;;
21110;SDS011;10713;51.912;4.494;2023-04-25T03:06:09;8.80;;;2.42;;
21110;SDS011;10713;51.912;4.494;2023-04-25T03:08:34;9.05;;;2.53;;
21110;SDS011;10713;51.912;4.494;2023-04-25T03:11:00;12.73;;;2.85;;
21110;SDS011;10713;51.912;4.494;2023-04-25T03:13:25;9.02;;;2.42;;
21110;SDS011;10713;51.912;4.494;2023-04-25T03:15:52;9.82;;;3.03;;
21110;SDS011;10713;51.912;4.494;2023-04-25T03:18:17;8.77;;;2.83;;
21110;SDS011;10713;51.912;4.494;2023-04-25T03:20:43;10.25;;;2.90;;
21110;SDS011;10713;51.912;4.494;2023-04-25T03:23:08;14.60;;;3.17;;
21110;SDS011;10713;51.912;4.494;2023-04-25T03:25:34;9.57;;;2.50;;
21110;SDS011;10713;51.912;4.494;2023-04-25T03:27:59;15.73;;;3.05;;
21110;SDS011;10713;51.912;4.494;2023-04-25T03:30:25;7.00;;;2.35;;
21110;SDS011;10713;51.912;4.494;2023-04-25T03:32:50;13.32;;;2.55;;
21110;SDS011;10713;51.912;4.494;2023-04-25T03:35:15;7.75;;;2.08;;
21110;SDS011;10713;51.912;4.494;2023-04-25T03:37:41;14.57;;;2.40;;
21110;SDS011;10713;51.912;4.494;2023-04-25T03:40:10;9.13;;;2.42;;
21110;SDS011;10713;51.912;4.494;2023-04-25T03:42:36;11.40;;;2.92;;
21110;SDS011;10713;51.912;4.494;2023-04-25T03:45:01;16.13;;;2.80;;
21110;SDS011;10713;51.912;4.494;2023-04-25T03:47:27;10.88;;;2.65;;
21110;SDS011;10713;51.912;4.494;2023-04-25T03:49:52;8.98;;;2.35;;
21110;SDS011;10713;51.912;4.494;2023-04-25T03:52:17;11.40;;;2.50;;
21110;SDS011;10713;51.912;4.494;2023-04-25T03:54:43;15.57;;;2.97;;
21110;SDS011;10713;51.912;4.494;2023-04-25T03:57:08;7.68;;;2.28;;
21110;SDS011;10713;51.912;4.494;2023-04-25T03:59:35;6.13;;;2.20;;
21110;SDS011;10713;51.912;4.494;2023-04-25T04:02:00;10.73;;;2.25;;
21110;SDS011;10713;51.912;4.494;2023-04-25T04:04:26;13.32;;;3.30;;
21110;SDS011;10713;51.912;4.494;2023-04-25T04:06:51;10.98;;;2.45;;
21110;SDS011;10713;51.912;4.494;2023-04-25T04:09:17;11.43;;;2.10;;
21110;SDS011;10713;51.912;4.494;2023-04-25T04:11:42;9.13;;;2.65;;
21110;SDS011;10713;51.912;4.494;2023-04-25T04:14:08;10.63;;;2.05;;
21110;SDS011;10713;51.912;4.494;2023-04-25T04:16:35;13.98;;;2.47;;
21110;SDS011;10713;51.912;4.494;2023-04-25T04:19:00;12.27;;;2.35;;
21110;SDS011;10713;51.912;4.494;2023-04-25T04:21:26;7.90;;;2.28;;
21110;SDS011;10713;51.912;4.494;2023-04-25T04:23:52;8.20;;;2.42;;
21110;SDS011;10713;51.912;4.494;2023-04-25T04:26:19;13.02;;;2.72;;
21110;SDS011;10713;51.912;4.494;2023-04-25T04:28:48;10.27;;;2.58;;
21110;SDS011;10713;51.912;4.494;2023-04-25T04:31:16;8.82;;;2.20;;
21110;SDS011;10713;51.912;4.494;2023-04-25T04:33:44;11.80;;;2.30;;
21110;SDS011;10713;51.912;4.494;2023-04-25T04:36:11;11.85;;;2.22;;
21110;SDS011;10713;51.912;4.494;2023-04-25T04:38:36;7.60;;;2.00;;
21110;SDS011;10713;51.912;4.494;2023-04-25T04:41:02;9.45;;;2.47;;
21110;SDS011;10713;51.912;4.494;2023-04-25T04:43:28;11.45;;;2.10;;
21110;SDS011;10713;51.912;4.494;2023-04-25T04:45:54;10.30;;;2.75;;
21110;SDS011;10713;51.912;4.494;2023-04-25T04:48:21;9.25;;;2.70;;
21110;SDS011;10713;51.912;4.494;2023-04-25T04:50:46;8.63;;;2.22;;
21110;SDS011;10713;51.912;4.494;2023-04-25T04:53:12;9.07;;;2.30;;
21110;SDS011;10713;51.912;4.494;2023-04-25T04:55:38;9.93;;;2.40;;
21110;SDS011;10713;51.912;4.494;2023-04-25T04:58:03;9.20;;;2.90;;
21110;SDS011;10713;51.912;4.494;2023-04-25T05:00:29;7.55;;;2.40;;
21110;SDS011;10713;51.912;4.494;2023-04-25T05:02:54;7.38;;;2.60;;
21110;SDS011;10713;51.912;4.494;2023-04-25T05:05:20;9.80;;;2.30;;
21110;SDS011;10713;51.912;4.494;2023-04-25T05:07:46;16.50;;;2.60;;
21110;SDS011;10713;51.912;4.494;2023-04-25T05:10:11;5.80;;;1.73;;
21110;SDS011;10713;51.912;4.494;2023-04-25T05:12:36;7.97;;;1.90;;
21110;SDS011;10713;51.912;4.494;2023-04-25T05:15:02;6.63;;;1.90;;
21110;SDS011;10713;51.912;4.494;2023-04-25T05:17:27;5.63;;;1.92;;
21110;SDS011;10713;51.912;4.494;2023-04-25T05:19:53;6.93;;;1.90;;
21110;SDS011;10713;51.912;4.494;2023-04-25T05:22:18;8.98;;;2.03;;
21110;SDS011;10713;51.912;4.494;2023-04-25T05:24:43;4.75;;;1.73;;
21110;SDS011;10713;51.912;4.494;2023-04-25T05:27:09;9.05;;;2.25;;
21110;SDS011;10713;51.912;4.494;2023-04-25T05:29:34;7.43;;;1.95;;
21110;SDS011;10713;51.912;4.494;2023-04-25T05:32:00;11.73;;;2.60;;
21110;SDS011;10713;51.912;4.494;2023-04-25T05:34:26;6.32;;;1.70;;
21110;SDS011;10713;51.912;4.494;2023-04-25T05:36:51;10.35;;;2.42;;
21110;SDS011;10713;51.912;4.494;2023-04-25T05:39:16;8.70;;;1.92;;
21110;SDS011;10713;51.912;4.494;2023-04-25T05:41:42;11.50;;;2.03;;
21110;SDS011;10713;51.912;4.494;2023-04-25T05:44:07;7.90;;;1.75;;
21110;SDS011;10713;51.912;4.494;2023-04-25T05:46:33;5.82;;;1.50;;
21110;SDS011;10713;51.912;4.494;2023-04-25T05:48:58;6.10;;;1.70;;
21110;SDS011;10713;51.912;4.494;2023-04-25T05:51:24;7.68;;;2.08;;
21110;SDS011;10713;51.912;4.494;2023-04-25T05:53:49;5.85;;;1.77;;
21110;SDS011;10713;51.912;4.494;2023-04-25T05:56:14;8.18;;;2.05;;
21110;SDS011;10713;51.912;4.494;2023-04-25T05:58:40;10.18;;;2.13;;
21110;SDS011;10713;51.912;4.494;2023-04-25T06:01:06;9.35;;;1.92;;
21110;SDS011;10713;51.912;4.494;2023-04-25T06:03:31;4.00;;;1.40;;
21110;SDS011;10713;51.912;4.494;2023-04-25T06:05:56;6.43;;;1.55;;
21110;SDS011;10713;51.912;4.494;2023-04-25T06:08:22;5.88;;;1.73;;
21110;SDS011;10713;51.912;4.494;2023-04-25T06:10:47;8.40;;;2.03;;
21110;SDS011;10713;51.912;4.494;2023-04-25T06:13:12;4.05;;;1.52;;
21110;SDS011;10713;51.912;4.494;2023-04-25T06:15:38;5.15;;;1.30;;
21110;SDS011;10713;51.912;4.494;2023-04-25T06:18:03;7.40;;;1.45;;
21110;SDS011;10713;51.912;4.494;2023-04-25T06:20:29;3.83;;;1.30;;
21110;SDS011;10713;51.912;4.494;2023-04-25T06:22:54;3.03;;;1.25;;
21110;SDS011;10713;51.912;4.494;2023-04-25T06:25:20;3.92;;;1.33;;
21110;SDS011;10713;51.912;4.494;2023-04-25T06:27:45;3.95;;;1.25;;
21110;SDS011;10713;51.912;4.494;2023-04-25T06:30:11;7.65;;;1.60;;
21110;SDS011;10713;51.912;4.494;2023-04-25T06:32:37;4.75;;;1.35;;
21110;SDS011;10713;51.912;4.494;2023-04-25T06:35:03;6.47;;;1.67;;
21110;SDS011;10713;51.912;4.494;2023-04-25T06:37:29;5.72;;;1.65;;
21110;SDS011;10713;51.912;4.494;2023-04-25T06:39:55;4.97;;;1.60;;
21110;SDS011;10713;51.912;4.494;2023-04-25T06:42:20;3.88;;;1.85;;
21110;SDS011;10713;51.912;4.494;2023-04-25T06:44:45;6.65;;;1.50;;
21110;SDS011;10713;51.912;4.494;2023-04-25T06:47:11;5.95;;;1.67;;
21110;SDS011;10713;51.912;4.494;2023-04-25T06:49:36;9.30;;;1.80;;
21110;SDS011;10713;51.912;4.494;2023-04-25T06:52:02;7.72;;;1.77;;
21110;SDS011;10713;51.912;4.494;2023-04-25T06:54:27;3.75;;;1.42;;
21110;SDS011;10713;51.912;4.494;2023-04-25T06:56:54;4.47;;;1.38;;
21110;SDS011;10713;51.912;4.494;2023-04-25T06:59:20;7.45;;;1.85;;
21110;SDS011;10713;51.912;4.494;2023-04-25T07:01:46;4.13;;;1.40;;
21110;SDS011;10713;51.912;4.494;2023-04-25T07:04:11;3.85;;;1.60;;
21110;SDS011;10713;51.912;4.494;2023-04-25T07:06:37;7.85;;;1.58;;
21110;SDS011;10713;51.912;4.494;2023-04-25T07:09:07;5.00;;;1.50;;
21110;SDS011;10713;51.912;4.494;2023-04-25T07:11:33;9.00;;;1.67;;
21110;SDS011;10713;51.912;4.494;2023-04-25T07:13:59;5.13;;;2.03;;
21110;SDS011;10713;51.912;4.494;2023-04-25T07:16:24;7.85;;;1.70;;
21110;SDS011;10713;51.912;4.494;2023-04-25T07:18:50;7.55;;;1.63;;
21110;SDS011;10713;51.912;4.494;2023-04-25T07:21:15;4.88;;;1.58;;
21110;SDS011;10713;51.912;4.494;2023-04-25T07:23:40;3.67;;;1.40;;
21110;SDS011;10713;51.912;4.494;2023-04-25T07:26:06;6.50;;;1.70;;
21110;SDS011;10713;51.912;4.494;2023-04-25T07:28:31;5.93;;;1.20;;
21110;SDS011;10713;51.912;4.494;2023-04-25T07:30:57;7.30;;;1.65;;
21110;SDS011;10713;51.912;4.494;2023-04-25T07:33:23;2.92;;;1.40;;
21110;SDS011;10713;51.912;4.494;2023-04-25T07:35:48;4.90;;;1.52;;
21110;SDS011;10713;51.912;4.494;2023-04-25T07:38:13;3.47;;;1.10;;
21110;SDS011;10713;51.912;4.494;2023-04-25T07:40:39;5.80;;;1.50;;
21110;SDS011;10713;51.912;4.494;2023-04-25T07:43:04;3.85;;;1.13;;
21110;SDS011;10713;51.912;4.494;2023-04-25T07:45:30;3.38;;;1.08;;
21110;SDS011;10713;51.912;4.494;2023-04-25T07:47:55;8.52;;;1.45;;
21110;SDS011;10713;51.912;4.494;2023-04-25T07:50:21;4.43;;;1.60;;
21110;SDS011;10713;51.912;4.494;2023-04-25T07:52:46;10.18;;;1.77;;
21110;SDS011;10713;51.912;4.494;2023-04-25T07:55:12;6.25;;;1.48;;
21110;SDS011;10713;51.912;4.494;2023-04-25T07:57:37;3.97;;;1.42;;
21110;SDS011;10713;51.912;4.494;2023-04-25T08:00:03;6.85;;;1.45;;
21110;SDS011;10713;51.912;4.494;2023-04-25T08:02:29;4.63;;;1.58;;
21110;SDS011;10713;51.912;4.494;2023-04-25T08:04:55;6.13;;;1.27;;
21110;SDS011;10713;51.912;4.494;2023-04-25T08:07:20;6.25;;;1.60;;
21110;SDS011;10713;51.912;4.494;2023-04-25T08:09:46;6.22;;;1.25;;
21110;SDS011;10713;51.912;4.494;2023-04-25T08:12:11;7.85;;;1.70;;
21110;SDS011;10713;51.912;4.494;2023-04-25T08:14:37;4.70;;;1.38;;
21110;SDS011;10713;51.912;4.494;2023-04-25T08:17:04;8.40;;;1.40;;
21110;SDS011;10713;51.912;4.494;2023-04-25T08:19:30;6.30;;;1.40;;
21110;SDS011;10713;51.912;4.494;2023-04-25T08:21:55;5.18;;;1.27;;
21110;SDS011;10713;51.912;4.494;2023-04-25T08:24:21;4.95;;;1.30;;
21110;SDS011;10713;51.912;4.494;2023-04-25T08:26:47;9.43;;;1.60;;
21110;SDS011;10713;51.912;4.494;2023-04-25T08:29:12;7.25;;;1.50;;
21110;SDS011;10713;51.912;4.494;2023-04-25T08:31:37;6.50;;;1.40;;
21110;SDS011;10713;51.912;4.494;2023-04-25T08:34:03;5.53;;;1.70;;
21110;SDS011;10713;51.912;4.494;2023-04-25T08:36:28;7.50;;;2.70;;
21110;SDS011;10713;51.912;4.494;2023-04-25T08:38:53;5.80;;;1.35;;
21110;SDS011;10713;51.912;4.494;2023-04-25T08:41:19;5.03;;;1.58;;
21110;SDS011;10713;51.912;4.494;2023-04-25T08:43:47;4.65;;;1.30;;
21110;SDS011;10713;51.912;4.494;2023-04-25T08:46:15;13.77;;;1.40;;
21110;SDS011;10713;51.912;4.494;2023-04-25T08:48:43;5.07;;;1.58;;
21110;SDS011;10713;51.912;4.494;2023-04-25T08:51:10;4.32;;;1.13;;
21110;SDS011;10713;51.912;4.494;2023-04-25T08:53:46;4.00;;;1.48;;
21110;SDS011;10713;51.912;4.494;2023-04-25T08:56:16;5.18;;;1.40;;
21110;SDS011;10713;51.912;4.494;2023-04-25T08:58:50;7.22;;;1.48;;
21110;SDS011;10713;51.912;4.494;2023-04-25T09:01:16;4.95;;;1.73;;
21110;SDS011;10713;51.912;4.494;2023-04-25T09:03:43;7.35;;;1.52;;
21110;SDS011;10713;51.912;4.494;2023-04-25T09:06:10;3.08;;;1.20;;
21110;SDS011;10713;51.912;4.494;2023-04-25T09:08:36;4.55;;;1.55;;
21110;SDS011;10713;51.912;4.494;2023-04-25T09:11:02;5.25;;;1.50;;
21110;SDS011;10713;51.912;4.494;2023-04-25T09:13:28;10.50;;;1.83;;
21110;SDS011;10713;51.912;4.494;2023-04-25T09:15:55;4.32;;;1.38;;
21110;SDS011;10713;51.912;4.494;2023-04-25T09:18:22;4.45;;;1.58;;
21110;SDS011;10713;51.912;4.494;2023-04-25T09:20:56;5.38;;;1.20;;
21110;SDS011;10713;51.912;4.494;2023-04-25T09:23:44;4.15;;;1.30;;
21110;SDS011;10713;51.912;4.494;2023-04-25T09:26:15;5.15;;;1.17;;
21110;SDS011;10713;51.912;4.494;2023-04-25T09:28:42;3.03;;;1.17;;
21110;SDS011;10713;51.912;4.494;2023-04-25T09:31:09;6.03;;;1.17;;
21110;SDS011;10713;51.912;4.494;2023-04-25T09:33:35;4.03;;;1.25;;
21110;SDS011;10713;51.912;4.494;2023-04-25T09:36:01;6.40;;;2.50;;
21110;SDS011;10713;51.912;4.494;2023-04-25T09:38:29;9.32;;;1.27;;
21110;SDS011;10713;51.912;4.494;2023-04-25T09:40:55;4.38;;;1.10;;
21110;SDS011;10713;51.912;4.494;2023-04-25T09:43:21;4.03;;;1.13;;
21110;SDS011;10713;51.912;4.494;2023-04-25T09:45:48;10.18;;;1.05;;
21110;SDS011;10713;51.912;4.494;2023-04-25T09:48:17;4.55;;;1.23;;
21110;SDS011;10713;51.912;4.494;2023-04-25T09:50:43;7.88;;;1.60;;
21110;SDS011;10713;51.912;4.494;2023-04-25T09:53:09;3.20;;;1.17;;
21110;SDS011;10713;51.912;4.494;2023-04-25T09:55:35;4.55;;;1.48;;
21110;SDS011;10713;51.912;4.494;2023-04-25T09:58:03;6.38;;;1.20;;
21110;SDS011;10713;51.912;4.494;2023-04-25T10:00:33;4.97;;;1.00;;
21110;SDS011;10713;51.912;4.494;2023-04-25T10:03:00;4.25;;;1.10;;
21110;SDS011;10713;51.912;4.494;2023-04-25T10:05:29;6.43;;;1.10;;
21110;SDS011;10713;51.912;4.494;2023-04-25T10:07:57;5.63;;;1.20;;
21110;SDS011;10713;51.912;4.494;2023-04-25T10:10:24;4.97;;;1.25;;
21110;SDS011;10713;51.912;4.494;2023-04-25T10:12:52;4.50;;;1.20;;
21110;SDS011;10713;51.912;4.494;2023-04-25T10:15:19;2.85;;;1.42;;
21110;SDS011;10713;51.912;4.494;2023-04-25T10:17:44;7.25;;;1.42;;
21110;SDS011;10713;51.912;4.494;2023-04-25T10:20:10;4.43;;;1.10;;
21110;SDS011;10713;51.912;4.494;2023-04-25T10:22:39;6.90;;;1.35;;
21110;SDS011;10713;51.912;4.494;2023-04-25T10:25:07;7.00;;;1.40;;
21110;SDS011;10713;51.912;4.494;2023-04-25T10:27:34;7.60;;;1.45;;
21110;SDS011;10713;51.912;4.494;2023-04-25T10:30:00;6.80;;;1.50;;
21110;SDS011;10713;51.912;4.494;2023-04-25T10:32:31;5.10;;;1.20;;
21110;SDS011;10713;51.912;4.494;2023-04-25T10:35:19;7.50;;;1.40;;
21110;SDS011;10713;51.912;4.494;2023-04-25T10:40:23;6.53;;;1.52;;
21110;SDS011;10713;51.912;4.494;2023-04-25T10:42:48;9.98;;;1.10;;
21110;SDS011;10713;51.912;4.494;2023-04-25T10:45:16;5.57;;;1.20;;
21110;SDS011;10713;51.912;4.494;2023-04-25T10:47:45;5.53;;;1.52;;
21110;SDS011;10713;51.912;4.494;2023-04-25T10:50:10;9.93;;;2.03;;
21110;SDS011;10713;51.912;4.494;2023-04-25T10:52:38;4.60;;;1.42;;
21110;SDS011;10713;51.912;4.494;2023-04-25T10:55:04;3.78;;;1.30;;
21110;SDS011;10713;51.912;4.494;2023-04-25T10:57:40;7.80;;;1.65;;
21110;SDS011;10713;51.912;4.494;2023-04-25T11:00:13;4.63;;;1.30;;
21110;SDS011;10713;51.912;4.494;2023-04-25T11:05:17;5.90;;;1.80;;
21110;SDS011;10713;51.912;4.494;2023-04-25T11:07:52;6.78;;;1.30;;
21110;SDS011;10713;51.912;4.494;2023-04-25T11:10:32;5.45;;;1.20;;
21110;SDS011;10713;51.912;4.494;2023-04-25T11:13:00;4.13;;;1.20;;
21110;SDS011;10713;51.912;4.494;2023-04-25T11:15:26;7.75;;;1.90;;
21110;SDS011;10713;51.912;4.494;2023-04-25T11:17:52;6.68;;;1.40;;
21110;SDS011;10713;51.912;4.494;2023-04-25T11:20:18;4.32;;;1.55;;
21110;SDS011;10713;51.912;4.494;2023-04-25T11:22:44;4.55;;;1.30;;
21110;SDS011;10713;51.912;4.494;2023-04-25T11:25:11;4.45;;;1.30;;
21110;SDS011;10713;51.912;4.494;2023-04-25T11:27:38;5.00;;;1.50;;
21110;SDS011;10713;51.912;4.494;2023-04-25T11:30:14;5.88;;;1.27;;
21110;SDS011;10713;51.912;4.494;2023-04-25T11:32:41;5.63;;;1.70;;
21110;SDS011;10713;51.912;4.494;2023-04-25T11:35:08;7.63;;;1.73;;
21110;SDS011;10713;51.912;4.494;2023-04-25T11:37:34;4.43;;;1.42;;
21110;SDS011;10713;51.912;4.494;2023-04-25T11:39:59;4.85;;;1.42;;
21110;SDS011;10713;51.912;4.494;2023-04-25T11:42:25;5.65;;;1.30;;
21110;SDS011;10713;51.912;4.494;2023-04-25T11:44:51;3.28;;;1.08;;
21110;SDS011;10713;51.912;4.494;2023-04-25T11:47:17;5.63;;;1.60;;
21110;SDS011;10713;51.912;4.494;2023-04-25T11:49:42;4.75;;;1.40;;
21110;SDS011;10713;51.912;4.494;2023-04-25T11:52:08;4.13;;;1.38;;
21110;SDS011;10713;51.912;4.494;2023-04-25T11:54:36;2.78;;;1.27;;
21110;SDS011;10713;51.912;4.494;2023-04-25T11:57:02;4.72;;;1.20;;
21110;SDS011;10713;51.912;4.494;2023-04-25T11:59:28;2.90;;;1.13;;
21110;SDS011;10713;51.912;4.494;2023-04-25T12:01:54;8.10;;;1.63;;
21110;SDS011;10713;51.912;4.494;2023-04-25T12:04:20;3.25;;;1.02;;
21110;SDS011;10713;51.912;4.494;2023-04-25T12:06:47;7.32;;;1.50;;
21110;SDS011;10713;51.912;4.494;2023-04-25T12:09:15;2.65;;;1.20;;
21110;SDS011;10713;51.912;4.494;2023-04-25T12:12:01;5.10;;;1.30;;
21110;SDS011;10713;51.912;4.494;2023-04-25T12:14:34;6.32;;;1.48;;
21110;SDS011;10713;51.912;4.494;2023-04-25T12:17:01;12.88;;;1.40;;
21110;SDS011;10713;51.912;4.494;2023-04-25T12:19:36;4.28;;;1.35;;
21110;SDS011;10713;51.912;4.494;2023-04-25T12:22:10;5.18;;;1.38;;
21110;SDS011;10713;51.912;4.494;2023-04-25T12:24:45;4.35;;;1.52;;
21110;SDS011;10713;51.912;4.494;2023-04-25T12:27:10;5.88;;;1.55;;
21110;SDS011;10713;51.912;4.494;2023-04-25T12:29:49;12.68;;;1.63;;
21110;SDS011;10713;51.912;4.494;2023-04-25T12:32:16;4.90;;;1.55;;
21110;SDS011;10713;51.912;4.494;2023-04-25T12:34:42;6.00;;;1.40;;
21110;SDS011;10713;51.912;4.494;2023-04-25T12:37:08;5.20;;;1.48;;
21110;SDS011;10713;51.912;4.494;2023-04-25T12:39:34;2.90;;;1.23;;
21110;SDS011;10713;51.912;4.494;2023-04-25T12:42:00;11.82;;;2.20;;
21110;SDS011;10713;51.912;4.494;2023-04-25T12:44:26;6.60;;;1.38;;
21110;SDS011;10713;51.912;4.494;2023-04-25T12:46:51;5.45;;;1.70;;
21110;SDS011;10713;51.912;4.494;2023-04-25T12:49:17;11.45;;;1.40;;
21110;SDS011;10713;51.912;4.494;2023-04-25T12:51:42;6.88;;;1.55;;
21110;SDS011;10713;51.912;4.494;2023-04-25T12:54:08;9.20;;;1.42;;
21110;SDS011;10713;51.912;4.494;2023-04-25T12:56:33;4.07;;;1.20;;
21110;SDS011;10713;51.912;4.494;2023-04-25T12:58:59;4.95;;;1.40;;
21110;SDS011;10713;51.912;4.494;2023-04-25T13:01:25;5.43;;;1.25;;
21110;SDS011;10713;51.912;4.494;2023-04-25T13:03:51;9.13;;;1.58;;
21110;SDS011;10713;51.912;4.494;2023-04-25T13:06:17;6.07;;;1.42;;
21110;SDS011;10713;51.912;4.494;2023-04-25T13:08:43;4.45;;;1.30;;
21110;SDS011;10713;51.912;4.494;2023-04-25T13:11:09;3.45;;;1.10;;
21110;SDS011;10713;51.912;4.494;2023-04-25T13:13:34;8.55;;;1.80;;
21110;SDS011;10713;51.912;4.494;2023-04-25T13:16:00;4.00;;;1.40;;
21110;SDS011;10713;51.912;4.494;2023-04-25T13:18:27;4.15;;;1.50;;
21110;SDS011;10713;51.912;4.494;2023-04-25T13:20:53;7.43;;;1.80;;
21110;SDS011;10713;51.912;4.494;2023-04-25T13:23:19;19.52;;;4.25;;
21110;SDS011;10713;51.912;4.494;2023-04-25T13:25:45;6.70;;;1.45;;
21110;SDS011;10713;51.912;4.494;2023-04-25T13:28:11;4.60;;;1.17;;
21110;SDS011;10713;51.912;4.494;2023-04-25T13:30:37;5.78;;;1.90;;
21110;SDS011;10713;51.912;4.494;2023-04-25T13:33:02;10.00;;;2.00;;
21110;SDS011;10713;51.912;4.494;2023-04-25T13:35:28;6.85;;;1.73;;
21110;SDS011;10713;51.912;4.494;2023-04-25T13:37:55;8.60;;;1.90;;
21110;SDS011;10713;51.912;4.494;2023-04-25T13:40:21;8.68;;;1.80;;
21110;SDS011;10713;51.912;4.494;2023-04-25T13:42:46;6.07;;;1.90;;
21110;SDS011;10713;51.912;4.494;2023-04-25T13:45:12;6.82;;;1.85;;
21110;SDS011;10713;51.912;4.494;2023-04-25T13:47:37;6.55;;;1.52;;
21110;SDS011;10713;51.912;4.494;2023-04-25T13:50:03;7.70;;;1.55;;
21110;SDS011;10713;51.912;4.494;2023-04-25T13:52:30;4.38;;;1.40;;
21110;SDS011;10713;51.912;4.494;2023-04-25T13:54:56;3.95;;;1.55;;
21110;SDS011;10713;51.912;4.494;2023-04-25T13:57:22;6.13;;;1.75;;
21110;SDS011;10713;51.912;4.494;2023-04-25T13:59:47;7.13;;;1.67;;
21110;SDS011;10713;51.912;4.494;2023-04-25T14:02:12;7.28;;;1.48;;
21110;SDS011;10713;51.912;4.494;2023-04-25T14:04:38;5.88;;;1.58;;
21110;SDS011;10713;51.912;4.494;2023-04-25T14:07:04;4.20;;;1.50;;
21110;SDS011;10713;51.912;4.494;2023-04-25T14:09:30;5.95;;;1.55;;
21110;SDS011;10713;51.912;4.494;2023-04-25T14:11:55;4.90;;;1.48;;
21110;SDS011;10713;51.912;4.494;2023-04-25T14:14:21;6.35;;;1.65;;
21110;SDS011;10713;51.912;4.494;2023-04-25T14:16:48;4.95;;;1.67;;
21110;SDS011;10713;51.912;4.494;2023-04-25T14:19:14;5.40;;;1.40;;
21110;SDS011;10713;51.912;4.494;2023-04-25T14:21:40;6.50;;;1.45;;
21110;SDS011;10713;51.912;4.494;2023-04-25T14:24:05;4.78;;;1.60;;
21110;SDS011;10713;51.912;4.494;2023-04-25T14:26:31;4.75;;;1.73;;
21110;SDS011;10713;51.912;4.494;2023-04-25T14:28:58;4.55;;;1.08;;
21110;SDS011;10713;51.912;4.494;2023-04-25T14:31:23;4.40;;;1.30;;
21110;SDS011;10713;51.912;4.494;2023-04-25T14:33:48;5.68;;;1.40;;
21110;SDS011;10713;51.912;4.494;2023-04-25T14:36:14;6.32;;;1.40;;
21110;SDS011;10713;51.912;4.494;2023-04-25T14:38:39;5.32;;;1.40;;
21110;SDS011;10713;51.912;4.494;2023-04-25T14:41:04;4.97;;;1.23;;
21110;SDS011;10713;51.912;4.494;2023-04-25T14:43:30;5.78;;;1.70;;